Elliot Chaparral Reserve, California Weather observations

Data are for 10 minute period ending at time listed.
 Day   Time   Solar   Ave.   Ave.  Ave.  Vector  Max.   Baro.   Total    
  of    of     Rad.   Air    Rel.  Wind   Wind   Wind  Press.  Precip.   
Year   Day            Temp.  Hum.  Speed  Dir.   Gust                    
2014   (PST)  Kw/m2    F      %     mph   deg.    mph    mb.     in.     
-------------------------------------------------------------------------
 303    6:00   0.00   58.9    87    5.7    82     6.5   985.9    0.00 
 303    6:10   0.00   59.0    87    5.8    72     7.2   985.8    0.00 
 303    6:20   0.01   59.7    82    4.0    83     6.0   985.9    0.00 
 303    6:30   0.03   60.1    76    3.5    79     6.1   985.9    0.00 
 303    6:40   0.02   59.9    74    4.1    68     7.2   985.9    0.00 
 303    6:50   0.06   59.8    72    5.4    78     8.1   986.0    0.00 
 303    7:00   0.05   60.2    69    2.8    68     5.3   986.3    0.00 
 303    7:10   0.15   61.2    63    6.6   112    10.7   986.4    0.00 
 303    7:20   0.24   63.2    61    7.1    90     9.2   986.6    0.00 
 303    7:30   0.25   64.5    57    6.3    96     8.8   986.7    0.00 
 303    7:40   0.22   65.5    52    6.8    99     8.3   986.7    0.00 
 303    7:50   0.25   65.8    48    6.8    91     9.5   986.7    0.00 
 303    8:00   0.41   69.2    43    5.8    91     9.1   986.8    0.00 
 303    8:10   0.42   71.2    40    4.5    97     8.2   987.0    0.00 
 303    8:20   0.43   73.7    36    3.4   130     6.6   987.1    0.00 
 303    8:30   0.39   74.1    36    2.9   191     4.4   987.1    0.00 
 303    8:40   0.53   74.2    35    3.6   209     5.8   987.1    0.00 
 303    8:50   0.47   74.2    36    2.6   188     5.7   987.0    0.00 
 303    9:00   0.43   74.0    36    2.6   226     4.5   987.0    0.00 
 303    9:10   0.28   74.6    35    2.5   219     5.5   987.0    0.00 
 303    9:20   0.22   73.3    38    4.5   247     6.5   987.0    0.00 
 303    9:30   0.20   72.2    41    4.3   258     6.9   987.0    0.00 
 303    9:40   0.26   72.7    42    3.6   232     5.4   987.0    0.00 
 303    9:50   0.28   72.9    42    3.5   218     5.6   987.0    0.00 
 303   10:00   0.47   73.6    42    2.3   222     4.5   986.9    0.00 
 303   10:10   0.35   75.8    38    2.0   205     3.6   986.9    0.00 
 303   10:20   0.50   75.5    39    4.5   219     7.2   986.9    0.00 
 303   10:30   0.57   75.8    36    6.5   206    11.2   986.8    0.00 
 303   10:40   0.74   77.4    32    6.6   222    10.5   986.6    0.00 
 303   10:50   0.66   77.5    30    7.6   210    12.2   986.4    0.00 
 303   11:00   0.71   78.3    28    5.4   214     9.7   986.2    0.00 
 303   11:10   0.71   78.9    26    5.2   197     9.7   986.0    0.00 
 303   11:20   0.68   80.1    25    5.0   225     9.6   985.9    0.00 
 303   11:30   0.71   80.3    22    5.2   222     9.1   985.7    0.00 
 303   11:40   0.71   80.7    21    5.3   243    10.4   985.5    0.00 
 303   11:50   0.71   81.4    20    6.2   233    12.0   985.4    0.00 
 303   12:00   0.71   81.4    20    8.2   224    12.3   985.4    0.00 
 303   12:10   0.70   81.1    19    5.2   222    11.1   985.4    0.00 
 303   12:20   0.69   81.0    21    7.8   240    12.5   985.2    0.00 
 303   12:30   0.68   81.9    21    7.4   230    13.2   985.2    0.00 
 303   12:40   0.64   81.6    25   10.1   236    15.3   985.1    0.00 
 303   12:50   0.66   80.1    33   12.6   254    16.9   985.0    0.00 
 303   13:00   0.65   79.5    36   11.6   252    17.5   985.0    0.00 
 303   13:10   0.62   79.5    38   11.9   238    17.2   985.0    0.00 
 303   13:20   0.55   78.4    41   11.3   244    16.5   984.9    0.00 
 303   13:30   0.59   77.5    48   10.2   275    15.4   984.7    0.00 
 303   13:40   0.57   76.4    52   10.3   268    14.8   984.7    0.00 
 303   13:50   0.49   75.8    53   10.1   261    14.1   984.7    0.00 
 303   14:00   0.50   76.1    54    8.4   274    12.6   984.7    0.00 
 303   14:10   0.49   76.1    55    8.9   278    12.9   984.6    0.00 
 303   14:20   0.41   75.1    57    8.6   282    12.7   984.5    0.00 
 303   14:30   0.28   74.0    58    8.9   280    12.5   984.6    0.00 
 303   14:40   0.25   73.6    60    9.4   285    13.7   984.7    0.00 
 303   14:50   0.26   72.5    63    9.6   289    13.2   984.7    0.00 
 303   15:00   0.31   72.6    64    9.1   280    13.7   984.9    0.00 
 303   15:10   0.20   71.5    68    9.7   277    12.8   984.9    0.00 
 303   15:20   0.14   70.8    69    8.6   278    12.6   984.9    0.00 
 303   15:30   0.11   70.0    71    9.1   295    11.5   985.0    0.00 
 303   15:40   0.13   70.1    71    9.5   272    13.2   985.1    0.00 
 303   15:50   0.15   70.0    71   11.7   273    16.1   985.3    0.00 
 303   16:00   0.08   68.7    75   10.4   274    14.6   985.4    0.00 
 303   16:10   0.06   68.0    77    9.3   286    11.5   985.4    0.00 
 303   16:20   0.04   67.4    77   10.2   293    12.3   985.4    0.00 
 303   16:30   0.04   67.1    76    8.9   299    11.2   985.3    0.00 
 303   16:40   0.04   67.2    77    7.2   324    11.5   985.3    0.00 
 303   16:50   0.01   66.6    78    6.7   330     9.6   985.2    0.00 
 303   17:00   0.00   66.1    80    5.2   333     7.1   985.2    0.00 
 303   17:10   0.00   65.8    80    4.9   318     6.8   985.3    0.00 
 303   17:20   0.00   65.6    81    4.3   345     6.4   985.2    0.00 
 303   17:30   0.00   65.5    81    3.4   330     5.6   985.3    0.00 
 303   17:40   0.00   65.3    82    3.5   322     4.5   985.4    0.00 
 303   17:50   0.00   65.1    83    4.4   322     6.1   985.6    0.00 
 303   18:00   0.00   65.0    83    4.1   317     5.9   985.7    0.00 
 303   18:10   0.00   64.7    84    2.5   318     3.9   985.7    0.00 
 303   18:20   0.00   64.5    85    3.8   292     5.4   985.8    0.00 
 303   18:30   0.00   63.9    86    5.1   302     6.4   985.9    0.00 
 303   18:40   0.00   63.6    87    3.1     4     4.1   985.8    0.00 
 303   18:50   0.00   63.5    87    3.4    54     4.5   985.6    0.00 
 303   19:00   0.00   62.6    88    6.7    81     9.2   985.3    0.00 
 303   19:10   0.00   62.2    89   10.0    92    11.6   985.1    0.00 
 303   19:20   0.00   62.5    88    4.8    81    10.9   985.3    0.00 
 303   19:30   0.00   62.2    88    7.3   266    11.9   985.7    0.00 
 303   19:40   0.00   62.1    90    9.2   271    11.5   986.0    0.00 
 303   19:50   0.00   62.7    90    8.8   266    10.7   986.2    0.00 
 303   20:00   0.00   62.9    91    7.7   289    11.2   986.2    0.00 
 303   20:10   0.00   62.9    91    6.0   312     9.8   986.2    0.00 
 303   20:20   0.00   63.0    91    5.5   314     8.6   986.3    0.00 
 303   20:30   0.00   63.2    91    5.3   302     9.1   986.6    0.00 
 303   20:40   0.00   63.4    91    3.3    52     6.0   986.3    0.00 
 303   20:50   0.00   63.3    91    2.8    51     4.9   986.2    0.00 
 303   21:00   0.00   63.2    91    3.4    50     5.2   986.2    0.00 
 303   21:10   0.00   63.2    91    2.9    38     4.2   986.4    0.00 
 303   21:20   0.00   62.6    91    4.4    89     5.4   986.3    0.00 
 303   21:30   0.00   62.4    91    5.9    93     9.3   986.2    0.00 
 303   21:40   0.00   62.2    92    4.8    87     9.5   986.3    0.00 
 303   21:50   0.00   62.5    92    2.7    96     5.0   986.5    0.00 
 303   22:00   0.00   62.7    92    2.3    26     3.7   986.5    0.00 
 303   22:10   0.00   63.1    91    1.2    25     2.2   986.5    0.00 
 303   22:20   0.00   63.2    91    1.1   127     2.4   986.5    0.00 
 303   22:30   0.00   63.2    91    2.0    99     2.9   986.3    0.00 
 303   22:40   0.00   63.5    90    2.2   114     3.3   986.3    0.00 
 303   22:50   0.00   63.6    89    2.2   137     3.1   986.2    0.00 
 303   23:00   0.00   63.7    89    2.1   147     2.8   986.2    0.00 
 303   23:10   0.00   63.8    88    1.9   147     2.6   986.1    0.00 
 303   23:20   0.00   63.8    88    2.0   162     2.8   986.1    0.00 
 303   23:30   0.00   63.8    88    2.0   160     2.6   986.2    0.00 
 303   23:40   0.00   63.8    87    2.9   175     5.5   986.2    0.00 
 303   23:50   0.00   63.9    86    2.5   176     4.0   986.1    0.00 
 304    0:00   0.00   64.0    86    2.2   195     3.0   986.1    0.00 
 304    0:10   0.00   64.0    87    1.9   196     2.9   986.0    0.00 
 304    0:20   0.00   63.7    87    2.3   163     3.1   985.9    0.00 
 304    0:30   0.00   63.3    88    4.0   194     4.9   985.9    0.00 
 304    0:40   0.00   63.1    89    3.0   223     4.2   985.9    0.00 
 304    0:50   0.00   63.3    89    2.0   236     3.0   985.8    0.00 
 304    1:00   0.00   63.2    89    2.0   208     2.5   985.8    0.00 
 304    1:10   0.00   63.2    90    2.6   190     3.2   985.9    0.00 
 304    1:20   0.00   63.3    90    2.7   212     3.2   985.9    0.00 
 304    1:30   0.00   63.3    90    2.1   214     2.9   985.9    0.00 
 304    1:40   0.00   63.3    90    2.6   217     3.4   986.0    0.00 
 304    1:50   0.00   63.3    90    1.9   235     2.5   986.0    0.00 
 304    2:00   0.00   63.4    89    1.4   237     2.1   985.9    0.00 
 304    2:10   0.00   63.4    89    0.3   202     1.5   985.8    0.00 
 304    2:20   0.00   63.1    89    1.0    97     1.4   985.6    0.00 
 304    2:30   0.00   62.9    87    1.8   173     3.4   985.5    0.00 
 304    2:40   0.00   63.3    80    1.9   152     2.9   985.5    0.00 
 304    2:50   0.00   63.6    85    1.8   143     3.9   985.4    0.00 
 304    3:00   0.00   63.2    87    1.5   191     3.7   985.3    0.00 
 304    3:10   0.00   63.0    88    0.9   202     1.5   985.3    0.00 
 304    3:20   0.00   62.7    88    1.0   158     3.0   985.2    0.00 
 304    3:30   0.00   62.5    89    1.6   183     2.8   985.2    0.00 
 304    3:40   0.00   62.8    90    0.7   206     1.3   985.2    0.00 
 304    3:50   0.00   62.9    90    1.4   248     2.0   985.3    0.00 
 304    4:00   0.00   62.7    90    1.2   231     1.8   985.4    0.00 
 304    4:10   0.00   62.5    90    2.7   294     4.9   985.5    0.00 
 304    4:20   0.00   62.2    91    2.9   319     3.7   985.6    0.00 
 304    4:30   0.00   62.2    91    3.0   339     3.9   985.6    0.00 
 304    4:40   0.00   62.5    91    2.2   338     2.7   985.5    0.00 
 304    4:50   0.00   62.6    91    1.0   320     1.7   985.5    0.00 
 304    5:00   0.00   62.6    91    1.1   278     1.8   985.5    0.00 
 304    5:10   0.00   62.6    91    1.0   286     1.8   985.5    0.00 
 304    5:20   0.00   62.5    91    0.1   323     1.2   985.5    0.00 
 304    5:30   0.00   62.3    91    0.4   109     1.7   985.5    0.00 
 304    5:40   0.00   62.4    91    1.2   103     1.8   985.5    0.00 
 304    5:50   0.00   62.4    91    1.1    68     1.8   985.5    0.00 

Return to Elliot Chaparral Reserve graphs page.


Western Regional Climate Center,wrcc@dri.edu